createdAt,value
2019-01-23T00:00:43.273Z,79.66
2019-01-23T00:03:11.891Z,80.04
2019-01-23T00:05:40.828Z,79.06
2019-01-23T00:08:09.425Z,79.83
2019-01-23T00:10:38.043Z,80.46
2019-01-23T00:13:06.642Z,80.20
2019-01-23T00:15:35.245Z,80.33
2019-01-23T00:18:03.876Z,80.31
2019-01-23T00:20:32.460Z,79.86
2019-01-23T00:23:01.083Z,79.94
2019-01-23T00:25:29.686Z,80.56
2019-01-23T00:27:58.295Z,79.91
2019-01-23T00:30:26.895Z,80.24
2019-01-23T00:32:55.511Z,80.03
2019-01-23T00:35:24.442Z,79.38
2019-01-23T00:37:53.051Z,79.40
2019-01-23T00:40:21.660Z,79.53
2019-01-23T00:42:50.576Z,79.33
2019-01-23T00:45:19.259Z,78.77
2019-01-23T00:47:48.141Z,79.09
2019-01-23T00:50:16.733Z,79.29
2019-01-23T00:52:45.367Z,79.93
2019-01-23T00:55:16.984Z,80.28
2019-01-23T00:57:45.582Z,79.98
2019-01-23T01:02:53.452Z,79.97
2019-01-23T01:05:22.035Z,79.85
2019-01-23T01:07:50.654Z,79.56
2019-01-23T01:10:19.613Z,79.78
2019-01-23T01:12:48.606Z,79.81
2019-01-23T01:15:17.483Z,79.89
2019-01-23T01:17:46.119Z,79.64
2019-01-23T01:20:14.754Z,79.74
2019-01-23T01:22:43.386Z,79.74
2019-01-23T01:25:12.015Z,80.11
2019-01-23T01:27:40.915Z,80.01
2019-01-23T01:30:15.532Z,80.25
2019-01-23T01:32:44.418Z,80.14
2019-01-23T01:35:13.306Z,80.03
2019-01-23T01:37:42.316Z,79.98
2019-01-23T01:40:14.462Z,79.75
2019-01-23T01:42:43.062Z,79.79
2019-01-23T01:45:12.028Z,80.17
2019-01-23T01:47:40.931Z,80.18
2019-01-23T01:50:12.572Z,80.21
2019-01-23T01:52:41.172Z,79.55
2019-01-23T01:55:09.785Z,79.49
2019-01-23T01:57:38.417Z,79.68
2019-01-23T02:02:45.417Z,79.81
2019-01-23T02:05:14.049Z,79.41
2019-01-23T02:07:42.683Z,79.64
2019-01-23T02:10:11.665Z,79.76
2019-01-23T02:12:40.298Z,80.42
2019-01-23T02:15:08.922Z,79.81
2019-01-23T02:17:37.554Z,80.90
2019-01-23T02:22:54.046Z,80.34
2019-01-23T02:25:22.664Z,80.17
2019-01-23T02:27:51.279Z,80.08
2019-01-23T02:30:19.899Z,79.97
2019-01-23T02:32:48.532Z,79.98
2019-01-23T02:35:17.170Z,79.84
2019-01-23T02:37:46.133Z,79.79
2019-01-23T02:40:14.779Z,80.11
2019-01-23T02:42:43.400Z,80.17
2019-01-23T02:45:12.023Z,80.74
2019-01-23T02:47:40.636Z,80.23
2019-01-23T02:50:09.556Z,79.73
2019-01-23T02:52:38.538Z,79.53
2019-01-23T02:55:07.199Z,79.77
2019-01-23T02:57:36.114Z,79.81
2019-01-23T03:00:07.768Z,79.33
2019-01-23T03:02:36.672Z,79.47
2019-01-23T03:05:05.306Z,79.16
2019-01-23T03:07:34.021Z,79.06
2019-01-23T03:10:02.653Z,79.35
2019-01-23T03:12:31.591Z,79.52
2019-01-23T03:15:00.198Z,79.44
2019-01-23T03:17:28.805Z,80.69
2019-01-23T03:19:57.417Z,80.55
2019-01-23T03:22:26.330Z,79.97
2019-01-23T03:24:55.212Z,79.53
2019-01-23T03:27:24.205Z,79.74
2019-01-23T03:29:52.833Z,80.02
2019-01-23T03:32:21.454Z,80.05
2019-01-23T03:34:50.056Z,80.24
2019-01-23T03:37:18.685Z,80.07
2019-01-23T03:39:47.284Z,80.09
2019-01-23T03:42:15.899Z,79.51
2019-01-23T03:44:44.787Z,79.80
2019-01-23T03:47:13.400Z,79.68
2019-01-23T03:49:42.035Z,79.46
2019-01-23T03:52:10.621Z,79.65
2019-01-23T03:54:39.536Z,79.93
2019-01-23T03:57:08.143Z,80.02
2019-01-23T03:59:36.779Z,79.25
2019-01-23T04:02:05.399Z,79.41
2019-01-23T04:04:34.058Z,79.15
2019-01-23T04:07:02.669Z,79.88
2019-01-23T04:09:31.623Z,79.87
2019-01-23T04:12:00.514Z,79.79
2019-01-23T04:14:29.507Z,80.02
2019-01-23T04:16:58.112Z,80.14
2019-01-23T04:19:27.105Z,80.59
2019-01-23T04:21:55.966Z,79.77
2019-01-23T04:24:24.571Z,80.19
2019-01-23T04:26:53.234Z,79.51
2019-01-23T04:29:21.840Z,79.03
2019-01-23T04:31:50.439Z,80.18
2019-01-23T04:34:19.075Z,80.29
2019-01-23T04:36:47.682Z,79.99
2019-01-23T04:39:16.674Z,79.67
2019-01-23T04:41:45.280Z,79.48
2019-01-23T04:44:14.169Z,79.58
2019-01-23T04:46:42.792Z,79.32
2019-01-23T04:49:11.456Z,79.58
2019-01-23T04:51:40.064Z,79.19
2019-01-23T04:54:08.739Z,79.21
2019-01-23T04:56:37.360Z,79.34
2019-01-23T04:59:06.219Z,79.92
2019-01-23T05:01:34.843Z,80.21
2019-01-23T05:04:03.500Z,79.52
2019-01-23T05:06:32.104Z,79.51
2019-01-23T05:09:00.719Z,79.37
2019-01-23T05:11:29.335Z,79.38
2019-01-23T05:13:57.957Z,79.12
2019-01-23T05:16:26.562Z,79.43
2019-01-23T05:18:55.188Z,79.63
2019-01-23T05:21:23.788Z,79.28
2019-01-23T05:23:52.390Z,79.42
2019-01-23T05:26:21.022Z,79.50
2019-01-23T05:28:50.016Z,79.11
2019-01-23T05:31:18.619Z,79.43
2019-01-23T05:33:47.632Z,79.47
2019-01-23T05:36:16.229Z,79.45
2019-01-23T05:38:45.182Z,79.48
2019-01-23T05:41:14.139Z,79.21
2019-01-23T05:43:42.757Z,79.20
2019-01-23T05:46:11.363Z,79.40
2019-01-23T05:48:39.988Z,79.42
2019-01-23T05:51:08.595Z,79.46
2019-01-23T05:53:37.255Z,79.64
2019-01-23T05:56:05.873Z,79.71
2019-01-23T05:58:34.833Z,79.49
2019-01-23T06:01:03.431Z,80.96
2019-01-23T06:03:32.277Z,81.05
2019-01-23T06:08:39.183Z,80.67
2019-01-23T06:11:07.797Z,80.70
2019-01-23T06:13:36.470Z,80.36
2019-01-23T06:16:05.444Z,80.22
2019-01-23T06:18:34.077Z,80.05
2019-01-23T06:21:03.080Z,80.53
2019-01-23T06:23:31.935Z,80.72
2019-01-23T06:26:00.556Z,80.38
2019-01-23T06:28:29.151Z,80.74
2019-01-23T06:30:58.054Z,81.23
2019-01-23T06:33:27.063Z,81.07
2019-01-23T06:35:55.683Z,80.71
2019-01-23T06:38:24.295Z,80.72
2019-01-23T06:40:52.916Z,80.64
2019-01-23T06:43:21.790Z,80.69
2019-01-23T06:45:50.689Z,80.77
2019-01-23T06:48:19.323Z,80.89
2019-01-23T06:50:47.939Z,81.09
2019-01-23T06:53:16.828Z,80.89
2019-01-23T06:55:45.818Z,80.74
2019-01-23T06:58:14.422Z,80.64
2019-01-23T07:00:43.050Z,80.57
2019-01-23T07:03:11.677Z,80.62
2019-01-23T07:05:40.305Z,81.30
2019-01-23T07:08:09.231Z,81.14
2019-01-23T07:10:37.866Z,81.06
2019-01-23T07:13:06.808Z,80.79
2019-01-23T07:15:35.804Z,81.63
2019-01-23T07:18:04.418Z,81.49
2019-01-23T07:20:33.037Z,81.38
2019-01-23T07:23:01.943Z,82.03
2019-01-23T07:25:30.567Z,81.66
2019-01-23T07:27:59.265Z,81.20
2019-01-23T07:30:37.451Z,81.11
2019-01-23T07:33:06.410Z,81.06
2019-01-23T07:35:35.328Z,80.63
2019-01-23T07:38:03.921Z,80.81
2019-01-23T07:40:32.874Z,80.82
2019-01-23T07:43:01.486Z,80.70
2019-01-23T07:45:30.119Z,81.17
2019-01-23T07:47:58.993Z,80.61
2019-01-23T07:50:27.918Z,80.33
2019-01-23T07:52:56.756Z,80.66
2019-01-23T07:55:25.385Z,80.65
2019-01-23T07:57:54.033Z,80.44
2019-01-23T08:00:22.963Z,80.16
2019-01-23T08:02:51.604Z,80.16
2019-01-23T08:05:20.531Z,80.03
2019-01-23T08:07:49.137Z,79.83
2019-01-23T08:10:17.775Z,79.77
2019-01-23T08:12:46.417Z,80.03
2019-01-23T08:15:20.884Z,80.05
2019-01-23T08:17:49.484Z,80.04
2019-01-23T08:20:18.134Z,79.98
2019-01-23T08:22:46.752Z,79.94
2019-01-23T08:25:15.401Z,80.13
2019-01-23T08:27:44.003Z,80.32
2019-01-23T08:32:51.183Z,79.98
2019-01-23T08:35:20.087Z,80.00
2019-01-23T08:37:48.991Z,79.77
2019-01-23T08:40:17.627Z,80.24
2019-01-23T08:42:46.597Z,80.36
2019-01-23T08:45:15.548Z,80.41
2019-01-23T08:47:44.534Z,80.58
2019-01-23T08:53:00.603Z,81.05
2019-01-23T08:55:29.210Z,81.43
2019-01-23T08:57:58.098Z,81.67
2019-01-23T09:00:26.716Z,81.50
2019-01-23T09:02:55.316Z,81.53
2019-01-23T09:05:23.935Z,81.40
2019-01-23T09:07:52.548Z,81.35
2019-01-23T09:12:59.777Z,81.44
2019-01-23T09:15:28.724Z,81.12
2019-01-23T09:17:57.615Z,81.35
2019-01-23T09:20:26.258Z,80.71
2019-01-23T09:22:54.866Z,80.84
2019-01-23T09:25:26.700Z,80.75
2019-01-23T09:27:55.622Z,80.82
2019-01-23T09:30:24.614Z,80.25
2019-01-23T09:33:08.273Z,80.12
2019-01-23T09:35:43.073Z,79.90
2019-01-23T09:38:20.722Z,79.73
2019-01-23T09:40:52.042Z,79.35
2019-01-23T09:43:24.285Z,79.54
2019-01-23T09:45:58.843Z,79.93
2019-01-23T09:48:30.475Z,80.51
2019-01-23T09:51:23.902Z,81.45
2019-01-23T09:53:52.525Z,81.82
2019-01-23T09:56:21.183Z,82.29
2019-01-23T09:58:50.038Z,82.18
2019-01-23T10:01:18.663Z,82.42
2019-01-23T10:03:47.266Z,82.23
2019-01-23T10:06:15.865Z,81.85
2019-01-23T10:08:44.466Z,81.23
2019-01-23T10:11:13.075Z,81.38
2019-01-23T10:13:41.716Z,81.03
2019-01-23T10:16:10.358Z,80.89
2019-01-23T10:18:38.966Z,81.08
2019-01-23T10:21:07.918Z,81.07
2019-01-23T10:23:36.573Z,80.56
2019-01-23T10:26:05.594Z,80.73
2019-01-23T10:28:34.483Z,80.94
2019-01-23T10:31:06.750Z,81.04
2019-01-23T10:33:31.753Z,80.62
2019-01-23T10:36:01.445Z,80.27
2019-01-23T10:41:09.474Z,79.97
2019-01-23T10:43:38.079Z,80.45
2019-01-23T10:46:06.726Z,80.83
2019-01-23T10:48:38.027Z,81.00
2019-01-23T10:51:04.614Z,81.40
2019-01-23T10:53:33.209Z,81.14
2019-01-23T10:56:02.189Z,81.40
2019-01-23T10:58:31.081Z,81.44
2019-01-23T11:00:59.961Z,81.66
2019-01-23T11:03:28.568Z,81.34
2019-01-23T11:05:57.537Z,80.68
2019-01-23T11:08:26.148Z,80.88
2019-01-23T11:10:55.146Z,80.97
2019-01-23T11:13:23.728Z,80.61
2019-01-23T11:15:52.339Z,80.46
2019-01-23T11:18:21.262Z,80.37
2019-01-23T11:20:50.253Z,80.79
2019-01-23T11:23:19.323Z,81.47
2019-01-23T11:25:48.231Z,81.10
2019-01-23T11:28:16.841Z,81.22
2019-01-23T11:30:45.800Z,81.03
2019-01-23T11:33:14.691Z,81.16
2019-01-23T11:35:43.288Z,80.44
2019-01-23T11:38:11.927Z,80.76
2019-01-23T11:40:40.568Z,81.02
2019-01-23T11:43:09.200Z,81.15
2019-01-23T11:45:37.813Z,81.51
2019-01-23T11:48:06.799Z,82.00
2019-01-23T11:50:35.406Z,82.03
2019-01-23T11:53:04.047Z,82.03
2019-01-23T11:55:32.650Z,82.05
2019-01-23T11:58:01.272Z,81.84
2019-01-23T12:00:30.215Z,81.36
2019-01-23T12:02:59.202Z,81.60
2019-01-23T12:05:28.193Z,81.73
2019-01-23T12:07:56.817Z,81.92
2019-01-23T12:10:25.460Z,81.42
2019-01-23T12:12:54.074Z,81.63
2019-01-23T12:15:25.799Z,81.84
2019-01-23T12:17:54.427Z,81.56
2019-01-23T12:20:23.037Z,81.60
2019-01-23T12:22:51.924Z,81.61
2019-01-23T12:25:20.512Z,81.28
2019-01-23T12:27:49.142Z,81.01
2019-01-23T12:32:56.664Z,80.64
2019-01-23T12:35:25.247Z,80.54
2019-01-23T12:37:53.885Z,80.63
2019-01-23T12:40:22.478Z,80.38
2019-01-23T12:42:51.454Z,80.38
2019-01-23T12:45:25.898Z,80.38
2019-01-23T12:47:54.522Z,80.36
2019-01-23T12:50:23.444Z,80.86
2019-01-23T12:52:52.087Z,81.26
2019-01-23T12:55:20.685Z,81.31
2019-01-23T12:57:49.324Z,81.28
2019-01-23T13:02:56.523Z,77.55
2019-01-23T13:05:25.477Z,76.14
2019-01-23T13:07:54.087Z,76.12
2019-01-23T13:10:22.722Z,76.39
2019-01-23T13:12:51.469Z,75.97
2019-01-23T13:15:24.515Z,75.65
2019-01-23T13:17:53.243Z,76.29
2019-01-23T13:20:21.910Z,76.04
2019-01-23T13:22:50.625Z,75.87
2019-01-23T13:25:19.263Z,75.77
2019-01-23T13:27:48.346Z,75.25
2019-01-23T13:30:16.978Z,76.11
2019-01-23T13:32:45.710Z,75.76
2019-01-23T13:35:14.396Z,76.55
2019-01-23T13:37:43.387Z,76.64
2019-01-23T13:42:50.776Z,77.42
2019-01-23T13:45:19.809Z,77.65
2019-01-23T13:47:48.764Z,77.95
2019-01-23T13:50:17.758Z,78.16
2019-01-23T13:52:46.782Z,78.51
2019-01-23T13:55:15.414Z,78.41
2019-01-23T13:57:44.135Z,78.00
2019-01-23T14:00:12.872Z,78.12
2019-01-23T14:02:43.046Z,77.90
2019-01-23T14:05:12.139Z,78.72
2019-01-23T14:07:41.315Z,79.03
2019-01-23T14:12:48.627Z,79.03
2019-01-23T14:15:23.241Z,78.52
2019-01-23T14:17:52.151Z,78.77
2019-01-23T14:20:21.212Z,78.72
2019-01-23T14:22:50.040Z,78.63
2019-01-23T14:25:18.878Z,78.86
2019-01-23T14:27:47.638Z,79.25
2019-01-23T14:33:04.483Z,78.94
2019-01-23T14:35:33.748Z,79.20
2019-01-23T14:38:02.697Z,79.08
2019-01-23T14:40:31.885Z,79.91
2019-01-23T14:43:00.825Z,79.50
2019-01-23T14:45:30.089Z,79.44
2019-01-23T14:47:59.122Z,79.77
2019-01-23T14:50:28.358Z,79.50
2019-01-23T14:52:57.164Z,79.61
2019-01-23T14:55:25.844Z,79.61
2019-01-23T14:57:54.669Z,79.99
2019-01-23T15:00:26.477Z,80.24
2019-01-23T15:02:55.766Z,80.06
2019-01-23T15:05:24.796Z,80.20
2019-01-23T15:07:53.763Z,80.49
2019-01-23T15:13:01.874Z,80.24
2019-01-23T15:15:31.094Z,79.88
2019-01-23T15:18:00.290Z,79.18
2019-01-23T15:23:14.702Z,79.53
2019-01-23T15:25:44.026Z,79.95
2019-01-23T15:28:13.029Z,79.91
2019-01-23T15:30:42.520Z,80.46
2019-01-23T15:33:11.935Z,80.54
2019-01-23T15:35:41.097Z,80.75
2019-01-23T15:38:10.620Z,81.21
2019-01-23T15:40:39.805Z,81.44
2019-01-23T15:43:09.005Z,81.41
2019-01-23T15:45:38.508Z,81.22
2019-01-23T15:48:07.598Z,81.61
2019-01-23T15:50:36.572Z,81.84
2019-01-23T15:53:05.682Z,82.00
2019-01-23T15:55:34.762Z,82.12
2019-01-23T15:58:03.986Z,82.70
2019-01-23T16:00:33.162Z,82.78
2019-01-23T16:03:02.689Z,82.75
2019-01-23T16:05:31.863Z,82.55
2019-01-23T16:08:00.942Z,82.64
2019-01-23T16:10:30.216Z,82.72
2019-01-23T16:12:59.232Z,82.94
2019-01-23T16:15:28.226Z,83.16
2019-01-23T16:17:57.562Z,83.48
2019-01-23T16:20:26.446Z,83.76
2019-01-23T16:22:55.616Z,83.84
2019-01-23T16:25:24.723Z,83.84
2019-01-23T16:27:53.927Z,83.67
2019-01-23T16:30:23.434Z,83.67
2019-01-23T16:32:52.570Z,83.77
2019-01-23T16:35:21.711Z,83.90
2019-01-23T16:37:51.176Z,83.56
2019-01-23T16:40:20.610Z,83.27
2019-01-23T16:42:50.123Z,83.45
2019-01-23T16:45:19.352Z,83.42
2019-01-23T16:47:48.491Z,83.60
2019-01-23T16:50:17.908Z,83.57
2019-01-23T16:52:47.078Z,84.00
2019-01-23T16:55:16.302Z,83.53
2019-01-23T16:57:45.802Z,83.34
2019-01-23T17:00:15.272Z,83.32
2019-01-23T17:02:44.526Z,82.73
2019-01-23T17:07:55.882Z,83.63
2019-01-23T17:10:24.873Z,83.71
2019-01-23T17:12:53.855Z,83.70
2019-01-23T17:15:23.154Z,83.41
2019-01-23T17:17:52.777Z,83.19
2019-01-23T17:23:04.222Z,83.10
2019-01-23T17:25:33.520Z,83.34
2019-01-23T17:28:02.644Z,83.11
2019-01-23T17:30:31.761Z,83.16
2019-01-23T17:33:00.936Z,83.33
2019-01-23T17:35:30.158Z,82.97
2019-01-23T17:37:59.568Z,82.94
2019-01-23T17:40:28.812Z,82.85
2019-01-23T17:42:57.939Z,82.89
2019-01-23T17:45:33.597Z,82.65
2019-01-23T17:48:02.887Z,82.64
2019-01-23T17:50:32.345Z,82.34
2019-01-23T17:53:01.566Z,82.24
2019-01-23T17:55:31.098Z,82.03
2019-01-23T17:58:00.536Z,82.27
2019-01-23T18:00:29.975Z,82.42
2019-01-23T18:02:59.202Z,82.10
2019-01-23T18:05:28.530Z,82.38
2019-01-23T18:07:57.787Z,82.50
2019-01-23T18:10:27.176Z,82.64
2019-01-23T18:12:56.397Z,82.54
2019-01-23T18:18:07.698Z,82.06
2019-01-23T18:20:37.273Z,82.42
2019-01-23T18:23:06.478Z,82.50
2019-01-23T18:25:35.893Z,82.46
2019-01-23T18:28:05.481Z,82.36
2019-01-23T18:36:10.978Z,82.71
2019-01-23T18:44:31.285Z,84.12
2019-01-23T18:47:06.287Z,84.62
2019-01-23T18:50:02.803Z,85.01
2019-01-23T18:52:32.384Z,85.39
2019-01-23T18:55:01.872Z,85.93
2019-01-23T18:57:31.135Z,85.97
2019-01-23T19:00:00.455Z,86.21
2019-01-23T19:02:30.269Z,86.27
2019-01-23T19:04:59.772Z,86.05
2019-01-23T19:07:29.247Z,85.79
2019-01-23T19:09:58.977Z,85.97
2019-01-23T19:12:28.183Z,85.68
2019-01-23T19:14:57.558Z,85.71
2019-01-23T19:17:26.973Z,85.68
2019-01-23T19:19:56.400Z,85.27
2019-01-23T19:22:25.754Z,85.06
2019-01-23T19:24:55.324Z,85.46
2019-01-23T19:27:24.753Z,85.22
2019-01-23T19:29:54.383Z,85.52
2019-01-23T19:32:23.774Z,85.49
2019-01-23T19:34:53.237Z,85.57
2019-01-23T19:37:22.585Z,85.31
2019-01-23T19:39:52.012Z,85.21
2019-01-23T19:42:21.501Z,85.61
2019-01-23T19:44:50.881Z,85.89
2019-01-23T19:47:20.590Z,86.02
2019-01-23T19:49:50.062Z,85.66
2019-01-23T19:52:19.813Z,85.09
2019-01-23T19:54:49.413Z,84.87
2019-01-23T19:57:18.610Z,84.71
2019-01-23T19:59:47.985Z,84.27
2019-01-23T20:02:17.418Z,84.49
2019-01-23T20:04:47.039Z,84.64
2019-01-23T20:07:16.414Z,85.17
2019-01-23T20:09:45.790Z,84.98
2019-01-23T20:12:15.773Z,85.05
2019-01-23T20:14:44.902Z,84.54
2019-01-23T20:17:14.302Z,84.29
2019-01-23T20:19:43.728Z,84.30
2019-01-23T20:22:13.031Z,84.16
2019-01-23T20:24:42.408Z,83.93
2019-01-23T20:27:11.834Z,84.55
2019-01-23T20:29:41.124Z,84.60
2019-01-23T20:32:10.526Z,84.63
2019-01-23T20:34:40.166Z,84.87
2019-01-23T20:37:09.516Z,85.00
2019-01-23T20:39:38.948Z,85.09
2019-01-23T20:42:08.320Z,84.83
2019-01-23T20:44:37.704Z,84.91
2019-01-23T20:47:07.043Z,85.07
2019-01-23T20:49:36.633Z,84.58
2019-01-23T20:52:05.929Z,84.87
2019-01-23T20:54:35.126Z,85.05
2019-01-23T20:57:04.836Z,85.25
2019-01-23T20:59:34.009Z,84.85
2019-01-23T21:02:03.601Z,84.92
2019-01-23T21:04:32.912Z,84.70
2019-01-23T21:07:02.217Z,84.93
2019-01-23T21:09:31.627Z,84.60
2019-01-23T21:12:01.337Z,84.63
2019-01-23T21:14:30.817Z,85.11
2019-01-23T21:17:00.244Z,84.74
2019-01-23T21:19:29.850Z,84.89
2019-01-23T21:21:59.159Z,85.16
2019-01-23T21:24:28.370Z,84.39
2019-01-23T21:26:57.550Z,84.67
2019-01-23T21:29:26.751Z,84.70
2019-01-23T21:31:56.233Z,84.68
2019-01-23T21:34:25.470Z,84.78
2019-01-23T21:36:54.894Z,84.82
2019-01-23T21:39:24.336Z,84.44
2019-01-23T21:41:53.417Z,84.55
2019-01-23T21:44:22.923Z,84.98
2019-01-23T21:46:52.382Z,84.75
2019-01-23T21:49:21.630Z,84.73
2019-01-23T21:51:50.836Z,84.72
2019-01-23T21:54:20.328Z,84.79
2019-01-23T21:56:49.856Z,85.09
2019-01-23T22:01:58.163Z,84.39
2019-01-23T22:04:27.137Z,84.29
2019-01-23T22:06:56.229Z,84.46
2019-01-23T22:09:25.538Z,84.77
2019-01-23T22:11:54.739Z,85.17
2019-01-23T22:14:24.133Z,84.84
2019-01-23T22:16:53.433Z,84.66
2019-01-23T22:19:22.396Z,84.58
2019-01-23T22:21:51.361Z,84.96
2019-01-23T22:24:20.281Z,85.19
2019-01-23T22:26:49.295Z,85.01
2019-01-23T22:29:18.259Z,84.56
2019-01-23T22:31:47.080Z,84.36
2019-01-23T22:34:16.161Z,84.76
2019-01-23T22:36:44.822Z,84.04
2019-01-23T22:39:13.840Z,84.27
2019-01-23T22:41:42.860Z,84.77
2019-01-23T22:44:11.720Z,84.81
2019-01-23T22:46:40.702Z,84.86
2019-01-23T22:49:09.698Z,85.01
2019-01-23T22:51:38.304Z,85.26
2019-01-23T22:54:06.923Z,84.31
2019-01-23T22:56:35.544Z,84.39
2019-01-23T22:59:04.164Z,84.90
2019-01-23T23:01:32.964Z,84.27
2019-01-23T23:04:03.337Z,84.48
2019-01-23T23:06:30.204Z,84.53
2019-01-23T23:08:58.811Z,84.95
2019-01-23T23:11:27.429Z,84.78
2019-01-23T23:13:56.328Z,84.44
2019-01-23T23:16:24.961Z,83.96
2019-01-23T23:18:53.900Z,84.23
2019-01-23T23:21:22.494Z,84.50
2019-01-23T23:23:51.103Z,84.91
2019-01-23T23:26:20.059Z,84.80
2019-01-23T23:28:48.679Z,84.20
2019-01-23T23:31:17.265Z,84.45
2019-01-23T23:33:45.887Z,84.76
2019-01-23T23:36:14.737Z,84.13
2019-01-23T23:38:43.698Z,83.63
2019-01-23T23:41:12.270Z,83.83
2019-01-23T23:43:40.883Z,84.28
2019-01-23T23:46:09.824Z,84.60
2019-01-23T23:48:38.715Z,84.95
2019-01-23T23:51:07.329Z,84.56
2019-01-23T23:53:35.952Z,84.53
2019-01-23T23:56:04.569Z,84.55
2019-01-23T23:58:33.179Z,84.35
